sensor_id;sensor_type;location;lat;lon;timestamp;pressure;altitude;pressure_sealevel;temperature;humidity
23427;BME280;41148;45.420;10.952;2024-01-15T00:01:30;99824.94;;;3.31;99.67
23427;BME280;41148;45.420;10.952;2024-01-15T00:03:59;99817.19;;;3.17;100.00
23427;BME280;41148;45.420;10.952;2024-01-15T00:06:26;99811.81;;;3.30;100.00
23427;BME280;41148;45.420;10.952;2024-01-15T00:11:56;99819.69;;;3.31;100.00
23427;BME280;41148;45.420;10.952;2024-01-15T00:14:23;99810.03;;;3.30;100.00
23427;BME280;41148;45.420;10.952;2024-01-15T00:16:51;99803.69;;;3.45;99.79
23427;BME280;41148;45.420;10.952;2024-01-15T00:19:19;99800.00;;;3.60;98.61
23427;BME280;41148;45.420;10.952;2024-01-15T00:21:47;99796.72;;;3.42;99.00
23427;BME280;41148;45.420;10.952;2024-01-15T00:24:15;99805.66;;;3.31;100.00
23427;BME280;41148;45.420;10.952;2024-01-15T00:26:42;99803.75;;;3.42;100.00
23427;BME280;41148;45.420;10.952;2024-01-15T00:29:10;99788.84;;;3.41;99.93
23427;BME280;41148;45.420;10.952;2024-01-15T00:31:37;99800.25;;;3.40;99.70
23427;BME280;41148;45.420;10.952;2024-01-15T00:34:05;99789.47;;;3.57;98.83
23427;BME280;41148;45.420;10.952;2024-01-15T00:36:33;99800.06;;;3.54;99.09
23427;BME280;41148;45.420;10.952;2024-01-15T00:39:00;99798.31;;;3.53;98.82
23427;BME280;41148;45.420;10.952;2024-01-15T00:41:28;99797.56;;;3.44;99.35
23427;BME280;41148;45.420;10.952;2024-01-15T00:43:56;99798.44;;;3.45;99.14
23427;BME280;41148;45.420;10.952;2024-01-15T00:46:23;99800.34;;;3.34;100.00
23427;BME280;41148;45.420;10.952;2024-01-15T00:48:50;99793.41;;;3.25;100.00
23427;BME280;41148;45.420;10.952;2024-01-15T00:51:18;99791.56;;;3.33;100.00
23427;BME280;41148;45.420;10.952;2024-01-15T00:53:46;99784.75;;;3.17;100.00
23427;BME280;41148;45.420;10.952;2024-01-15T00:56:13;99780.38;;;3.16;100.00
23427;BME280;41148;45.420;10.952;2024-01-15T00:58:41;99776.72;;;3.26;100.00
23427;BME280;41148;45.420;10.952;2024-01-15T01:01:08;99776.59;;;3.38;100.00
23427;BME280;41148;45.420;10.952;2024-01-15T01:03:36;99780.16;;;3.33;100.00
23427;BME280;41148;45.420;10.952;2024-01-15T01:06:04;99783.59;;;3.39;100.00
23427;BME280;41148;45.420;10.952;2024-01-15T01:08:31;99771.25;;;3.43;100.00
23427;BME280;41148;45.420;10.952;2024-01-15T01:10:59;99785.50;;;3.27;100.00
23427;BME280;41148;45.420;10.952;2024-01-15T01:13:27;99793.31;;;3.33;100.00
23427;BME280;41148;45.420;10.952;2024-01-15T01:15:55;99771.41;;;3.32;100.00
23427;BME280;41148;45.420;10.952;2024-01-15T01:18:22;99765.28;;;3.30;100.00
23427;BME280;41148;45.420;10.952;2024-01-15T01:20:50;99758.34;;;3.23;100.00
23427;BME280;41148;45.420;10.952;2024-01-15T01:23:18;99760.13;;;3.21;100.00
23427;BME280;41148;45.420;10.952;2024-01-15T01:25:45;99750.38;;;3.29;100.00
23427;BME280;41148;45.420;10.952;2024-01-15T01:28:13;99750.25;;;3.38;100.00
23427;BME280;41148;45.420;10.952;2024-01-15T01:30:40;99745.81;;;3.42;100.00
23427;BME280;41148;45.420;10.952;2024-01-15T01:33:08;99732.56;;;3.48;100.00
23427;BME280;41148;45.420;10.952;2024-01-15T01:35:36;99722.91;;;3.49;100.00
23427;BME280;41148;45.420;10.952;2024-01-15T01:38:03;99730.69;;;3.58;100.00
23427;BME280;41148;45.420;10.952;2024-01-15T01:40:31;99728.09;;;3.53;100.00
23427;BME280;41148;45.420;10.952;2024-01-15T01:42:58;99733.38;;;3.52;100.00
23427;BME280;41148;45.420;10.952;2024-01-15T01:45:25;99728.91;;;3.58;100.00
23427;BME280;41148;45.420;10.952;2024-01-15T01:47:53;99722.97;;;3.44;100.00
23427;BME280;41148;45.420;10.952;2024-01-15T01:50:21;99721.44;;;3.26;100.00
23427;BME280;41148;45.420;10.952;2024-01-15T01:52:49;99717.22;;;3.14;100.00
23427;BME280;41148;45.420;10.952;2024-01-15T01:55:18;99730.34;;;3.19;100.00
23427;BME280;41148;45.420;10.952;2024-01-15T01:57:46;99715.50;;;3.12;100.00
23427;BME280;41148;45.420;10.952;2024-01-15T02:00:14;99709.09;;;3.31;100.00
23427;BME280;41148;45.420;10.952;2024-01-15T02:02:42;99700.09;;;3.46;100.00
23427;BME280;41148;45.420;10.952;2024-01-15T02:05:10;99691.34;;;3.44;100.00
23427;BME280;41148;45.420;10.952;2024-01-15T02:07:38;99689.56;;;3.46;100.00
23427;BME280;41148;45.420;10.952;2024-01-15T02:10:05;99685.34;;;3.36;100.00
23427;BME280;41148;45.420;10.952;2024-01-15T02:12:34;99678.19;;;3.44;100.00
23427;BME280;41148;45.420;10.952;2024-01-15T02:15:02;99688.06;;;3.30;100.00
23427;BME280;41148;45.420;10.952;2024-01-15T02:17:31;99673.25;;;3.23;100.00
23427;BME280;41148;45.420;10.952;2024-01-15T02:19:59;99680.47;;;3.07;100.00
23427;BME280;41148;45.420;10.952;2024-01-15T02:22:26;99675.94;;;3.18;100.00
23427;BME280;41148;45.420;10.952;2024-01-15T02:24:54;99656.50;;;3.28;100.00
23427;BME280;41148;45.420;10.952;2024-01-15T02:27:21;99640.81;;;3.22;100.00
23427;BME280;41148;45.420;10.952;2024-01-15T02:29:49;99647.00;;;3.20;100.00
23427;BME280;41148;45.420;10.952;2024-01-15T02:32:18;99654.84;;;3.21;100.00
23427;BME280;41148;45.420;10.952;2024-01-15T02:34:45;99646.03;;;3.24;100.00
23427;BME280;41148;45.420;10.952;2024-01-15T02:37:13;99641.03;;;3.05;100.00
23427;BME280;41148;45.420;10.952;2024-01-15T02:39:40;99640.97;;;3.10;100.00
23427;BME280;41148;45.420;10.952;2024-01-15T02:42:08;99638.34;;;3.10;100.00
23427;BME280;41148;45.420;10.952;2024-01-15T02:44:35;99642.16;;;2.87;100.00
23427;BME280;41148;45.420;10.952;2024-01-15T02:47:03;99664.97;;;2.87;100.00
23427;BME280;41148;45.420;10.952;2024-01-15T02:49:30;99659.06;;;2.68;100.00
23427;BME280;41148;45.420;10.952;2024-01-15T02:52:00;99654.69;;;2.67;100.00
23427;BME280;41148;45.420;10.952;2024-01-15T02:54:27;99654.66;;;2.72;100.00
23427;BME280;41148;45.420;10.952;2024-01-15T02:56:55;99670.19;;;2.92;100.00
23427;BME280;41148;45.420;10.952;2024-01-15T02:59:22;99662.94;;;3.07;100.00
23427;BME280;41148;45.420;10.952;2024-01-15T03:01:49;99667.34;;;3.05;100.00
23427;BME280;41148;45.420;10.952;2024-01-15T03:04:17;99656.84;;;3.04;100.00
23427;BME280;41148;45.420;10.952;2024-01-15T03:06:45;99656.75;;;3.11;100.00
23427;BME280;41148;45.420;10.952;2024-01-15T03:09:12;99647.00;;;3.20;100.00
23427;BME280;41148;45.420;10.952;2024-01-15T03:12:17;99646.81;;;3.30;100.00
23427;BME280;41148;45.420;10.952;2024-01-15T03:14:45;99629.28;;;3.29;100.00
23427;BME280;41148;45.420;10.952;2024-01-15T03:17:13;99643.03;;;3.48;100.00
23427;BME280;41148;45.420;10.952;2024-01-15T03:19:40;99638.81;;;3.36;100.00
23427;BME280;41148;45.420;10.952;2024-01-15T03:22:09;99635.44;;;3.27;100.00
23427;BME280;41148;45.420;10.952;2024-01-15T03:24:36;99635.41;;;3.31;100.00
23427;BME280;41148;45.420;10.952;2024-01-15T03:27:04;99623.00;;;3.38;100.00
23427;BME280;41148;45.420;10.952;2024-01-15T03:29:32;99620.38;;;3.38;100.00
23427;BME280;41148;45.420;10.952;2024-01-15T03:31:59;99616.84;;;3.39;100.00
23427;BME280;41148;45.420;10.952;2024-01-15T03:34:27;99621.25;;;3.37;100.00
23427;BME280;41148;45.420;10.952;2024-01-15T03:36:54;99598.50;;;3.33;100.00
23427;BME280;41148;45.420;10.952;2024-01-15T03:39:22;99592.31;;;3.35;100.00
23427;BME280;41148;45.420;10.952;2024-01-15T03:41:49;99585.34;;;3.33;100.00
23427;BME280;41148;45.420;10.952;2024-01-15T03:44:17;99576.75;;;3.22;100.00
23427;BME280;41148;45.420;10.952;2024-01-15T03:46:44;99573.28;;;3.18;100.00
23427;BME280;41148;45.420;10.952;2024-01-15T03:49:12;99586.47;;;3.16;100.00
23427;BME280;41148;45.420;10.952;2024-01-15T03:51:39;99574.19;;;3.19;100.00
23427;BME280;41148;45.420;10.952;2024-01-15T03:54:07;99575.09;;;3.14;100.00
23427;BME280;41148;45.420;10.952;2024-01-15T03:56:34;99579.28;;;3.29;100.00
23427;BME280;41148;45.420;10.952;2024-01-15T03:59:02;99576.91;;;3.12;100.00
23427;BME280;41148;45.420;10.952;2024-01-15T04:01:30;99556.66;;;3.16;100.00
23427;BME280;41148;45.420;10.952;2024-01-15T04:03:57;99563.75;;;3.12;100.00
23427;BME280;41148;45.420;10.952;2024-01-15T04:06:25;99555.75;;;3.17;99.53
23427;BME280;41148;45.420;10.952;2024-01-15T04:08:53;99565.19;;;3.32;98.37
23427;BME280;41148;45.420;10.952;2024-01-15T04:11:20;99561.72;;;3.30;97.66
23427;BME280;41148;45.420;10.952;2024-01-15T04:13:48;99544.16;;;3.30;97.19
23427;BME280;41148;45.420;10.952;2024-01-15T04:16:16;99546.75;;;3.32;96.38
23427;BME280;41148;45.420;10.952;2024-01-15T04:18:43;99545.97;;;3.25;96.48
23427;BME280;41148;45.420;10.952;2024-01-15T04:21:11;99546.97;;;3.20;97.09
23427;BME280;41148;45.420;10.952;2024-01-15T04:23:39;99532.78;;;3.28;95.60
23427;BME280;41148;45.420;10.952;2024-01-15T04:26:06;99539.88;;;3.23;95.81
23427;BME280;41148;45.420;10.952;2024-01-15T04:28:34;99530.53;;;3.04;96.00
23427;BME280;41148;45.420;10.952;2024-01-15T04:31:01;99534.88;;;3.06;96.28
23427;BME280;41148;45.420;10.952;2024-01-15T04:33:29;99541.25;;;2.93;97.29
23427;BME280;41148;45.420;10.952;2024-01-15T04:36:01;99534.28;;;2.87;98.60
23427;BME280;41148;45.420;10.952;2024-01-15T04:38:29;99539.41;;;3.00;98.43
23427;BME280;41148;45.420;10.952;2024-01-15T04:40:56;99546.09;;;3.17;98.25
23427;BME280;41148;45.420;10.952;2024-01-15T04:43:24;99532.34;;;3.02;97.97
23427;BME280;41148;45.420;10.952;2024-01-15T04:45:52;99533.22;;;3.02;99.03
23427;BME280;41148;45.420;10.952;2024-01-15T04:48:20;99523.31;;;3.16;98.77
23427;BME280;41148;45.420;10.952;2024-01-15T04:50:47;99529.13;;;3.35;97.93
23427;BME280;41148;45.420;10.952;2024-01-15T04:53:15;99519.38;;;3.42;97.57
23427;BME280;41148;45.420;10.952;2024-01-15T04:55:42;99510.59;;;3.41;97.22
23427;BME280;41148;45.420;10.952;2024-01-15T04:58:10;99524.53;;;3.48;97.14
23427;BME280;41148;45.420;10.952;2024-01-15T05:00:37;99525.41;;;3.49;96.48
23427;BME280;41148;45.420;10.952;2024-01-15T05:03:05;99520.94;;;3.52;96.49
23427;BME280;41148;45.420;10.952;2024-01-15T05:05:33;99516.72;;;3.43;96.18
23427;BME280;41148;45.420;10.952;2024-01-15T05:08:00;99511.47;;;3.42;96.16
23427;BME280;41148;45.420;10.952;2024-01-15T05:10:28;99504.63;;;3.32;96.55
23427;BME280;41148;45.420;10.952;2024-01-15T05:12:55;99504.63;;;3.32;96.42
23427;BME280;41148;45.420;10.952;2024-01-15T05:15:23;99509.97;;;3.29;96.08
23427;BME280;41148;45.420;10.952;2024-01-15T05:17:50;99497.56;;;3.34;95.87
23427;BME280;41148;45.420;10.952;2024-01-15T05:20:18;99492.25;;;3.38;95.56
23427;BME280;41148;45.420;10.952;2024-01-15T05:22:46;99493.84;;;3.45;94.89
23427;BME280;41148;45.420;10.952;2024-01-15T05:25:13;99484.94;;;3.53;93.69
23427;BME280;41148;45.420;10.952;2024-01-15T05:27:41;99484.22;;;3.44;93.88
23427;BME280;41148;45.420;10.952;2024-01-15T05:30:09;99475.44;;;3.44;94.81
23427;BME280;41148;45.420;10.952;2024-01-15T05:32:36;99470.19;;;3.44;94.51
23427;BME280;41148;45.420;10.952;2024-01-15T05:35:04;99475.41;;;3.45;94.66
23427;BME280;41148;45.420;10.952;2024-01-15T05:37:32;99475.38;;;3.47;94.36
23427;BME280;41148;45.420;10.952;2024-01-15T05:39:59;99475.47;;;3.42;94.01
23427;BME280;41148;45.420;10.952;2024-01-15T05:42:27;99471.00;;;3.46;93.77
23427;BME280;41148;45.420;10.952;2024-01-15T05:44:57;99467.75;;;3.33;94.36
23427;BME280;41148;45.420;10.952;2024-01-15T05:47:27;99464.28;;;3.31;94.40
23427;BME280;41148;45.420;10.952;2024-01-15T05:49:54;99456.34;;;3.33;94.53
23427;BME280;41148;45.420;10.952;2024-01-15T05:52:22;99457.97;;;3.40;93.95
23427;BME280;41148;45.420;10.952;2024-01-15T05:54:50;99451.69;;;3.47;93.74
23427;BME280;41148;45.420;10.952;2024-01-15T05:57:18;99445.56;;;3.48;93.39
23427;BME280;41148;45.420;10.952;2024-01-15T05:59:45;99449.06;;;3.47;93.53
23427;BME280;41148;45.420;10.952;2024-01-15T06:02:13;99445.50;;;3.50;93.38
23427;BME280;41148;45.420;10.952;2024-01-15T06:04:40;99452.41;;;3.55;93.17
23427;BME280;41148;45.420;10.952;2024-01-15T06:07:08;99458.59;;;3.54;93.04
23427;BME280;41148;45.420;10.952;2024-01-15T06:09:36;99465.53;;;3.58;93.06
23427;BME280;41148;45.420;10.952;2024-01-15T06:12:04;99471.66;;;3.60;93.08
23427;BME280;41148;45.420;10.952;2024-01-15T06:14:32;99462.09;;;3.55;93.50
23427;BME280;41148;45.420;10.952;2024-01-15T06:16:59;99450.75;;;3.51;93.71
23427;BME280;41148;45.420;10.952;2024-01-15T06:19:27;99463.22;;;3.41;93.96
23427;BME280;41148;45.420;10.952;2024-01-15T06:21:55;99448.94;;;3.53;93.47
23427;BME280;41148;45.420;10.952;2024-01-15T06:24:22;99464.78;;;3.52;93.68
23427;BME280;41148;45.420;10.952;2024-01-15T06:26:50;99453.25;;;3.59;93.04
23427;BME280;41148;45.420;10.952;2024-01-15T06:29:18;99452.31;;;3.61;92.70
23427;BME280;41148;45.420;10.952;2024-01-15T06:31:45;99475.84;;;3.70;91.83
23427;BME280;41148;45.420;10.952;2024-01-15T06:34:15;99459.34;;;3.61;91.77
23427;BME280;41148;45.420;10.952;2024-01-15T06:36:43;99455.88;;;3.59;91.31
23427;BME280;41148;45.420;10.952;2024-01-15T06:39:11;99463.59;;;3.66;90.90
23427;BME280;41148;45.420;10.952;2024-01-15T06:41:38;99463.63;;;3.65;91.29
23427;BME280;41148;45.420;10.952;2024-01-15T06:44:11;99460.25;;;3.60;91.24
23427;BME280;41148;45.420;10.952;2024-01-15T06:46:43;99458.63;;;3.53;91.59
23427;BME280;41148;45.420;10.952;2024-01-15T06:49:11;99457.03;;;3.44;91.74
23427;BME280;41148;45.420;10.952;2024-01-15T06:51:39;99453.47;;;3.45;92.53
23427;BME280;41148;45.420;10.952;2024-01-15T06:54:07;99466.59;;;3.50;93.38
23427;BME280;41148;45.420;10.952;2024-01-15T06:56:35;99458.75;;;3.45;93.21
23427;BME280;41148;45.420;10.952;2024-01-15T06:59:02;99454.31;;;3.47;92.95
23427;BME280;41148;45.420;10.952;2024-01-15T07:01:30;99454.31;;;3.49;92.93
23427;BME280;41148;45.420;10.952;2024-01-15T07:03:58;99452.38;;;3.57;92.61
23427;BME280;41148;45.420;10.952;2024-01-15T07:06:25;99454.94;;;3.61;92.39
23427;BME280;41148;45.420;10.952;2024-01-15T07:08:53;99455.66;;;3.69;91.67
23427;BME280;41148;45.420;10.952;2024-01-15T07:11:21;99453.06;;;3.66;92.03
23427;BME280;41148;45.420;10.952;2024-01-15T07:13:49;99456.59;;;3.67;91.87
23427;BME280;41148;45.420;10.952;2024-01-15T07:16:16;99437.19;;;3.71;90.90
23427;BME280;41148;45.420;10.952;2024-01-15T07:19:03;99446.00;;;3.70;90.87
23427;BME280;41148;45.420;10.952;2024-01-15T07:21:30;99448.63;;;3.70;90.58
23427;BME280;41148;45.420;10.952;2024-01-15T07:23:58;99460.06;;;3.69;90.50
23427;BME280;41148;45.420;10.952;2024-01-15T07:26:26;99469.41;;;3.84;90.33
23427;BME280;41148;45.420;10.952;2024-01-15T07:28:53;99469.19;;;3.94;90.13
23427;BME280;41148;45.420;10.952;2024-01-15T07:31:21;99463.97;;;3.93;90.71
23427;BME280;41148;45.420;10.952;2024-01-15T07:33:49;99463.06;;;3.94;90.33
23427;BME280;41148;45.420;10.952;2024-01-15T07:36:16;99464.56;;;4.07;89.17
23427;BME280;41148;45.420;10.952;2024-01-15T07:38:44;99467.97;;;4.11;86.87
23427;BME280;41148;45.420;10.952;2024-01-15T07:41:13;99464.47;;;4.10;88.05
23427;BME280;41148;45.420;10.952;2024-01-15T07:43:40;99473.28;;;4.09;87.58
23427;BME280;41148;45.420;10.952;2024-01-15T07:46:08;99472.88;;;3.87;87.71
23427;BME280;41148;45.420;10.952;2024-01-15T07:48:35;99486.41;;;3.69;88.81
23427;BME280;41148;45.420;10.952;2024-01-15T07:51:04;99469.56;;;3.76;89.64
23427;BME280;41148;45.420;10.952;2024-01-15T07:53:32;99485.44;;;3.73;89.23
23427;BME280;41148;45.420;10.952;2024-01-15T07:56:01;99493.47;;;3.67;89.05
23427;BME280;41148;45.420;10.952;2024-01-15T07:58:32;99486.63;;;3.58;87.13
23427;BME280;41148;45.420;10.952;2024-01-15T08:01:00;99485.28;;;3.81;85.90
23427;BME280;41148;45.420;10.952;2024-01-15T08:03:27;99481.50;;;3.94;84.52
23427;BME280;41148;45.420;10.952;2024-01-15T08:05:55;99474.47;;;3.96;83.90
23427;BME280;41148;45.420;10.952;2024-01-15T08:08:25;99485.38;;;3.78;83.76
23427;BME280;41148;45.420;10.952;2024-01-15T08:10:56;99476.53;;;3.80;83.85
23427;BME280;41148;45.420;10.952;2024-01-15T08:13:26;99479.13;;;3.82;83.74
23427;BME280;41148;45.420;10.952;2024-01-15T08:15:54;99483.41;;;3.86;82.17
23427;BME280;41148;45.420;10.952;2024-01-15T08:18:21;99483.94;;;4.03;80.87
23427;BME280;41148;45.420;10.952;2024-01-15T08:20:52;99489.31;;;3.98;79.74
23427;BME280;41148;45.420;10.952;2024-01-15T08:23:19;99495.53;;;3.96;80.75
23427;BME280;41148;45.420;10.952;2024-01-15T08:25:47;99494.63;;;3.97;80.68
23427;BME280;41148;45.420;10.952;2024-01-15T08:28:14;99496.41;;;3.96;79.56
23427;BME280;41148;45.420;10.952;2024-01-15T08:30:42;99490.94;;;4.04;79.90
23427;BME280;41148;45.420;10.952;2024-01-15T08:33:09;99482.97;;;4.09;78.64
23427;BME280;41148;45.420;10.952;2024-01-15T08:35:47;99478.63;;;4.06;79.42
23427;BME280;41148;45.420;10.952;2024-01-15T08:38:15;99466.31;;;4.07;79.27
23427;BME280;41148;45.420;10.952;2024-01-15T08:40:42;99474.91;;;4.15;79.42
23427;BME280;41148;45.420;10.952;2024-01-15T08:43:11;99477.22;;;4.30;78.95
23427;BME280;41148;45.420;10.952;2024-01-15T08:45:39;99468.38;;;4.32;78.66
23427;BME280;41148;45.420;10.952;2024-01-15T08:48:06;99463.72;;;4.44;77.99
23427;BME280;41148;45.420;10.952;2024-01-15T08:50:34;99474.06;;;4.53;77.58
23427;BME280;41148;45.420;10.952;2024-01-15T08:53:01;99466.38;;;4.44;78.18
23427;BME280;41148;45.420;10.952;2024-01-15T08:55:30;99467.84;;;4.57;78.08
23427;BME280;41148;45.420;10.952;2024-01-15T08:57:57;99466.94;;;4.58;78.72
23427;BME280;41148;45.420;10.952;2024-01-15T09:00:25;99469.44;;;4.64;79.13
23427;BME280;41148;45.420;10.952;2024-01-15T09:02:52;99459.28;;;4.84;78.68
23427;BME280;41148;45.420;10.952;2024-01-15T09:05:22;99467.06;;;4.89;79.24
23427;BME280;41148;45.420;10.952;2024-01-15T09:07:50;99465.03;;;5.00;79.56
23427;BME280;41148;45.420;10.952;2024-01-15T09:10:19;99465.66;;;5.10;79.07
23427;BME280;41148;45.420;10.952;2024-01-15T09:12:47;99470.94;;;5.10;78.79
23427;BME280;41148;45.420;10.952;2024-01-15T09:15:16;99469.56;;;5.31;77.91
23427;BME280;41148;45.420;10.952;2024-01-15T09:17:44;99450.88;;;5.37;77.47
23427;BME280;41148;45.420;10.952;2024-01-15T09:20:12;99455.53;;;5.27;77.62
23427;BME280;41148;45.420;10.952;2024-01-15T09:22:39;99458.84;;;5.35;77.50
23427;BME280;41148;45.420;10.952;2024-01-15T09:25:09;99457.91;;;5.38;77.30
23427;BME280;41148;45.420;10.952;2024-01-15T09:27:37;99459.78;;;5.34;77.43
23427;BME280;41148;45.420;10.952;2024-01-15T09:30:05;99451.81;;;5.36;77.12
23427;BME280;41148;45.420;10.952;2024-01-15T09:32:33;99469.94;;;5.48;77.41
23427;BME280;41148;45.420;10.952;2024-01-15T09:35:01;99475.00;;;5.57;77.99
23427;BME280;41148;45.420;10.952;2024-01-15T09:37:29;99478.97;;;5.73;76.71
23427;BME280;41148;45.420;10.952;2024-01-15T09:40:13;99467.06;;;5.88;76.20
23427;BME280;41148;45.420;10.952;2024-01-15T09:42:45;99480.38;;;5.85;76.76
23427;BME280;41148;45.420;10.952;2024-01-15T09:45:14;99456.44;;;5.93;76.78
23427;BME280;41148;45.420;10.952;2024-01-15T09:47:42;99466.78;;;6.00;76.28
23427;BME280;41148;45.420;10.952;2024-01-15T09:50:13;99462.09;;;6.10;75.52
23427;BME280;41148;45.420;10.952;2024-01-15T09:52:43;99469.81;;;6.18;75.80
23427;BME280;41148;45.420;10.952;2024-01-15T09:55:13;99464.47;;;6.19;75.93
23427;BME280;41148;45.420;10.952;2024-01-15T09:57:41;99447.69;;;6.20;75.81
23427;BME280;41148;45.420;10.952;2024-01-15T10:00:10;99447.31;;;6.32;76.07
23427;BME280;41148;45.420;10.952;2024-01-15T10:02:39;99445.28;;;6.13;77.05
23427;BME280;41148;45.420;10.952;2024-01-15T10:05:07;99453.41;;;6.35;77.09
23427;BME280;41148;45.420;10.952;2024-01-15T10:07:37;99447.66;;;6.50;76.50
23427;BME280;41148;45.420;10.952;2024-01-15T10:10:05;99447.44;;;6.56;76.83
23427;BME280;41148;45.420;10.952;2024-01-15T10:12:33;99428.63;;;6.65;76.55
23427;BME280;41148;45.420;10.952;2024-01-15T10:15:01;99417.56;;;6.80;75.47
23427;BME280;41148;45.420;10.952;2024-01-15T10:17:30;99430.63;;;6.86;75.17
23427;BME280;41148;45.420;10.952;2024-01-15T10:19:58;99415.94;;;6.76;74.44
23427;BME280;41148;45.420;10.952;2024-01-15T10:22:26;99415.69;;;6.84;74.78
23427;BME280;41148;45.420;10.952;2024-01-15T10:24:53;99409.38;;;6.88;75.25
23427;BME280;41148;45.420;10.952;2024-01-15T10:27:21;99410.00;;;6.96;75.07
23427;BME280;41148;45.420;10.952;2024-01-15T10:29:48;99396.59;;;7.01;74.27
23427;BME280;41148;45.420;10.952;2024-01-15T10:32:16;99399.97;;;6.79;74.51
23427;BME280;41148;45.420;10.952;2024-01-15T10:34:43;99402.13;;;6.93;74.61
23427;BME280;41148;45.420;10.952;2024-01-15T10:37:11;99400.88;;;6.78;74.35
23427;BME280;41148;45.420;10.952;2024-01-15T10:39:39;99395.38;;;6.84;73.59
23427;BME280;41148;45.420;10.952;2024-01-15T10:42:06;99387.22;;;6.91;73.76
23427;BME280;41148;45.420;10.952;2024-01-15T10:44:35;99375.66;;;6.93;73.52
23427;BME280;41148;45.420;10.952;2024-01-15T10:47:03;99373.72;;;6.98;73.47
23427;BME280;41148;45.420;10.952;2024-01-15T10:49:31;99374.53;;;7.00;73.95
23427;BME280;41148;45.420;10.952;2024-01-15T10:52:01;99392.31;;;6.97;73.25
23427;BME280;41148;45.420;10.952;2024-01-15T10:54:30;99372.94;;;6.95;72.86
23427;BME280;41148;45.420;10.952;2024-01-15T10:56:58;99378.06;;;7.01;72.63
23427;BME280;41148;45.420;10.952;2024-01-15T10:59:25;99374.09;;;6.87;72.76
23427;BME280;41148;45.420;10.952;2024-01-15T11:01:53;99367.78;;;6.92;72.49
23427;BME280;41148;45.420;10.952;2024-01-15T11:04:23;99363.81;;;7.05;71.75
23427;BME280;41148;45.420;10.952;2024-01-15T11:06:55;99346.22;;;7.02;71.83
23427;BME280;41148;45.420;10.952;2024-01-15T11:09:24;99370.72;;;7.09;71.43
23427;BME280;41148;45.420;10.952;2024-01-15T11:12:06;99347.13;;;7.01;72.16
23427;BME280;41148;45.420;10.952;2024-01-15T11:14:47;99344.50;;;7.01;71.67
23427;BME280;41148;45.420;10.952;2024-01-15T11:17:15;99341.53;;;7.35;70.50
23427;BME280;41148;45.420;10.952;2024-01-15T11:19:47;99338.16;;;7.30;70.85
23427;BME280;41148;45.420;10.952;2024-01-15T11:25:13;99347.28;;;7.22;70.71
23427;BME280;41148;45.420;10.952;2024-01-15T11:27:45;99336.50;;;7.28;70.14
23427;BME280;41148;45.420;10.952;2024-01-15T11:30:15;99325.97;;;7.26;69.87
23427;BME280;41148;45.420;10.952;2024-01-15T11:32:43;99327.41;;;7.10;70.58
23427;BME280;41148;45.420;10.952;2024-01-15T11:35:11;99335.38;;;7.33;69.97
23427;BME280;41148;45.420;10.952;2024-01-15T11:40:35;99335.56;;;7.29;69.45
23427;BME280;41148;45.420;10.952;2024-01-15T11:43:05;99325.69;;;7.34;69.11
23427;BME280;41148;45.420;10.952;2024-01-15T11:45:34;99313.19;;;7.37;69.07
23427;BME280;41148;45.420;10.952;2024-01-15T11:48:11;99298.72;;;7.46;69.31
23427;BME280;41148;45.420;10.952;2024-01-15T11:50:42;99291.72;;;7.45;69.23
23427;BME280;41148;45.420;10.952;2024-01-15T11:55:52;99270.75;;;7.61;69.84
23427;BME280;41148;45.420;10.952;2024-01-15T11:58:25;99268.75;;;7.67;69.11
23427;BME280;41148;45.420;10.952;2024-01-15T12:00:53;99269.63;;;7.68;68.40
23427;BME280;41148;45.420;10.952;2024-01-15T12:03:22;99259.38;;;7.59;69.19
23427;BME280;41148;45.420;10.952;2024-01-15T12:05:53;99250.56;;;7.58;69.07
23427;BME280;41148;45.420;10.952;2024-01-15T12:08:24;99226.41;;;7.42;70.35
23427;BME280;41148;45.420;10.952;2024-01-15T12:10:52;99231.94;;;7.60;70.27
23427;BME280;41148;45.420;10.952;2024-01-15T12:13:20;99232.56;;;7.66;70.12
23427;BME280;41148;45.420;10.952;2024-01-15T12:15:48;99224.97;;;7.57;70.97
23427;BME280;41148;45.420;10.952;2024-01-15T12:18:18;99197.97;;;7.47;71.89
23427;BME280;41148;45.420;10.952;2024-01-15T12:20:46;99196.97;;;7.50;71.83
23427;BME280;41148;45.420;10.952;2024-01-15T12:23:17;99181.94;;;7.51;71.83
23427;BME280;41148;45.420;10.952;2024-01-15T12:25:45;99176.78;;;7.69;71.71
23427;BME280;41148;45.420;10.952;2024-01-15T12:28:14;99182.88;;;7.71;71.92
23427;BME280;41148;45.420;10.952;2024-01-15T12:30:41;99181.34;;;7.66;72.35
23427;BME280;41148;45.420;10.952;2024-01-15T12:33:10;99185.66;;;7.68;73.08
23427;BME280;41148;45.420;10.952;2024-01-15T12:35:38;99176.72;;;7.49;72.43
23427;BME280;41148;45.420;10.952;2024-01-15T12:38:05;99181.72;;;7.57;73.26
23427;BME280;41148;45.420;10.952;2024-01-15T12:40:33;99181.72;;;7.33;74.84
23427;BME280;41148;45.420;10.952;2024-01-15T12:43:05;99166.97;;;7.50;74.82
23427;BME280;41148;45.420;10.952;2024-01-15T12:45:34;99167.16;;;7.45;75.14
23427;BME280;41148;45.420;10.952;2024-01-15T12:48:04;99164.03;;;7.57;75.53
23427;BME280;41148;45.420;10.952;2024-01-15T12:50:33;99168.94;;;7.66;75.50
23427;BME280;41148;45.420;10.952;2024-01-15T12:53:01;99158.91;;;7.74;75.14
23427;BME280;41148;45.420;10.952;2024-01-15T12:55:29;99150.97;;;7.74;74.90
23427;BME280;41148;45.420;10.952;2024-01-15T12:57:56;99148.78;;;7.84;74.39
23427;BME280;41148;45.420;10.952;2024-01-15T13:00:24;99134.47;;;7.88;73.62
23427;BME280;41148;45.420;10.952;2024-01-15T13:02:54;99130.59;;;7.75;73.62
23427;BME280;41148;45.420;10.952;2024-01-15T13:05:22;99131.22;;;7.82;73.46
23427;BME280;41148;45.420;10.952;2024-01-15T13:07:51;99140.63;;;7.89;73.80
23427;BME280;41148;45.420;10.952;2024-01-15T13:10:27;99137.44;;;7.81;73.39
23427;BME280;41148;45.420;10.952;2024-01-15T13:12:57;99131.03;;;7.86;73.91
23427;BME280;41148;45.420;10.952;2024-01-15T13:15:25;99130.09;;;7.87;72.43